North Riverside, Illinois
Current Conditions -  °F | °C
As of 5:53 AM on Sunday 23 Nov 2014 (Local Time) from KMDW Reporting Station
Overcast Overcast  
Wind Chill: 51°   Ceiling: 3600
Heat Index: 51°   Visibility: 10mi
Dew Point: 43°   Wind: 10mph
Humidity: 74%   Direction: 180°S
Pressure: 29.76"   Gusts: NA
Location:  41.8368°N, 87.8215°W
Report Text: KMDW 231153Z 18009KT 10SM BKN036 BKN049 OVC150 11/06 A2976 RMK AO2 SLP078 70001 T01060061 10111 20100 56018
Loading
Personal Weather Stations






























Interactive Weather Map New forecast layout! Learn more

10-Day Weather Forecast

Advertisements
Track Severe Weather on mobile